createdAt,value
2023-01-28T00:00:55.241Z,99.99
2023-01-28T00:01:55.216Z,99.99
2023-01-28T00:02:55.192Z,99.99
2023-01-28T00:03:55.212Z,99.99
2023-01-28T00:04:55.287Z,99.99
2023-01-28T00:05:55.163Z,99.99
2023-01-28T00:06:55.162Z,99.99
2023-01-28T00:07:55.168Z,99.99
2023-01-28T00:08:55.145Z,99.99
2023-01-28T00:09:55.179Z,99.99
2023-01-28T00:15:32.584Z,99.99
2023-01-28T00:16:32.600Z,99.99
2023-01-28T00:17:32.503Z,99.99
2023-01-28T00:18:33.615Z,99.99
2023-01-28T00:19:32.523Z,99.99
2023-01-28T00:20:32.496Z,99.99
2023-01-28T00:21:32.540Z,99.99
2023-01-28T00:22:32.490Z,99.99
2023-01-28T00:23:32.512Z,99.99
2023-01-28T00:24:32.511Z,99.99
2023-01-28T00:25:32.471Z,99.99
2023-01-28T00:26:32.481Z,99.99
2023-01-28T00:27:32.471Z,99.99
2023-01-28T00:28:32.575Z,99.99
2023-01-28T00:29:32.458Z,99.99
2023-01-28T00:30:32.599Z,99.99
2023-01-28T00:31:32.478Z,99.99
2023-01-28T00:32:32.476Z,99.99
2023-01-28T00:33:32.620Z,99.99
2023-01-28T00:34:32.482Z,99.99
2023-01-28T00:35:32.422Z,99.99
2023-01-28T00:36:32.409Z,99.99
2023-01-28T00:37:32.414Z,99.99
2023-01-28T00:38:32.415Z,99.99
2023-01-28T00:39:32.407Z,99.99
2023-01-28T00:40:32.507Z,99.99
2023-01-28T00:41:32.539Z,99.99
2023-01-28T00:42:32.422Z,99.99
2023-01-28T00:43:32.370Z,99.99
2023-01-28T00:44:32.395Z,99.99
2023-01-28T00:45:32.362Z,99.99
2023-01-28T00:46:32.350Z,99.99
2023-01-28T00:47:32.362Z,99.99
2023-01-28T00:48:32.363Z,99.99
2023-01-28T00:49:32.406Z,99.99
2023-01-28T00:50:32.334Z,99.99
2023-01-28T00:51:32.398Z,99.99
2023-01-28T00:52:32.516Z,99.99
2023-01-28T00:53:32.389Z,99.99
2023-01-28T00:54:32.459Z,99.99
2023-01-28T00:55:32.391Z,99.99
2023-01-28T00:56:32.354Z,99.99
2023-01-28T00:57:32.371Z,99.99
2023-01-28T00:58:32.317Z,99.99
2023-01-28T00:59:32.286Z,99.99
2023-01-28T01:00:32.310Z,99.99
2023-01-28T01:01:32.344Z,99.99
2023-01-28T01:02:32.346Z,99.99
2023-01-28T01:03:33.294Z,99.99
2023-01-28T01:04:32.314Z,99.99
2023-01-28T01:05:32.277Z,99.99
2023-01-28T01:06:32.278Z,99.99
2023-01-28T01:07:32.292Z,99.99
2023-01-28T01:08:32.244Z,99.99
2023-01-28T01:09:32.239Z,99.99
2023-01-28T01:10:32.242Z,99.99
2023-01-28T01:11:32.231Z,99.99
2023-01-28T01:12:32.241Z,99.99
2023-01-28T01:13:32.232Z,99.99
2023-01-28T01:14:32.221Z,99.99
2023-01-28T01:15:32.243Z,99.99
2023-01-28T01:16:32.253Z,99.99
2023-01-28T01:17:32.199Z,99.99
2023-01-28T01:18:32.211Z,99.99
2023-01-28T01:19:32.185Z,99.99
2023-01-28T01:20:32.290Z,99.99
2023-01-28T01:21:32.213Z,99.99
2023-01-28T01:22:32.205Z,99.99
2023-01-28T01:23:32.312Z,99.99
2023-01-28T01:24:32.213Z,99.99
2023-01-28T01:25:32.204Z,99.99
2023-01-28T01:26:32.152Z,99.99
2023-01-28T01:27:32.143Z,99.99
2023-01-28T01:28:32.175Z,99.99
2023-01-28T01:29:32.142Z,99.99
2023-01-28T01:30:32.150Z,99.99
2023-01-28T01:31:32.153Z,99.99
2023-01-28T01:32:32.115Z,99.99
2023-01-28T01:33:32.112Z,99.99
2023-01-28T01:34:32.186Z,99.99
2023-01-28T01:35:32.106Z,99.99
2023-01-28T01:36:32.660Z,99.99
2023-01-28T01:37:32.097Z,99.99
2023-01-28T01:38:32.116Z,99.99
2023-01-28T01:39:32.230Z,99.99
2023-01-28T01:40:32.079Z,99.99
2023-01-28T01:41:32.094Z,99.99
2023-01-28T01:42:32.065Z,99.99
2023-01-28T01:43:32.128Z,99.99
2023-01-28T01:44:32.637Z,99.99
2023-01-28T01:45:32.070Z,99.99
2023-01-28T01:46:32.084Z,99.99
2023-01-28T01:47:32.620Z,99.99
2023-01-28T01:48:32.087Z,99.99
2023-01-28T01:49:32.175Z,99.99
2023-01-28T01:50:32.063Z,99.99
2023-01-28T01:51:32.148Z,99.99
2023-01-28T01:52:32.621Z,99.99
2023-01-28T01:53:32.729Z,99.99
2023-01-28T01:54:35.124Z,99.99
2023-01-28T01:55:32.759Z,99.99
2023-01-28T01:56:33.193Z,99.99
2023-01-28T01:57:33.125Z,99.99
2023-01-28T01:58:32.016Z,99.99
2023-01-28T01:59:32.071Z,99.99
2023-01-28T02:00:31.973Z,99.99
2023-01-28T02:01:32.176Z,99.99
2023-01-28T02:02:32.202Z,99.99
2023-01-28T02:03:32.700Z,99.99
2023-01-28T02:04:32.093Z,99.99
2023-01-28T02:05:31.968Z,99.99
2023-01-28T02:06:32.648Z,99.99
2023-01-28T02:07:32.657Z,99.99
2023-01-28T02:08:32.008Z,99.99
2023-01-28T02:09:31.937Z,99.99
2023-01-28T02:10:31.941Z,99.99
2023-01-28T02:11:31.962Z,99.99
2023-01-28T02:12:31.978Z,99.99
2023-01-28T02:13:31.956Z,99.99
2023-01-28T02:14:32.152Z,99.99
2023-01-28T02:15:31.898Z,99.99
2023-01-28T02:16:32.030Z,99.99
2023-01-28T02:17:31.991Z,99.99
2023-01-28T02:18:33.156Z,99.99
2023-01-28T02:19:31.902Z,99.99
2023-01-28T02:20:32.009Z,99.99
2023-01-28T02:21:31.882Z,99.99
2023-01-28T02:22:31.892Z,99.99
2023-01-28T02:23:31.910Z,99.99
2023-01-28T02:24:31.895Z,99.99
2023-01-28T02:25:31.859Z,99.99
2023-01-28T02:26:31.851Z,99.99
2023-01-28T02:27:32.052Z,99.99
2023-01-28T02:28:31.932Z,99.99
2023-01-28T02:29:31.961Z,99.99
2023-01-28T02:30:32.000Z,99.99
2023-01-28T02:31:32.037Z,99.99
2023-01-28T02:32:31.816Z,99.99
2023-01-28T02:33:31.799Z,99.99
2023-01-28T02:34:31.878Z,99.99
2023-01-28T02:35:31.811Z,99.99
2023-01-28T02:36:31.836Z,99.99
2023-01-28T02:37:31.839Z,99.99
2023-01-28T02:38:31.808Z,99.99
2023-01-28T02:39:31.844Z,99.99
2023-01-28T02:40:31.808Z,99.99
2023-01-28T02:41:31.784Z,99.99
2023-01-28T02:42:31.766Z,99.99
2023-01-28T02:43:31.764Z,99.99
2023-01-28T02:44:31.781Z,99.99
2023-01-28T02:45:31.783Z,99.99
2023-01-28T02:46:31.929Z,99.99
2023-01-28T02:47:31.786Z,99.99
2023-01-28T02:48:31.745Z,99.99
2023-01-28T02:49:31.730Z,99.99
2023-01-28T02:50:31.774Z,99.99
2023-01-28T02:51:31.715Z,99.99
2023-01-28T02:52:31.702Z,99.99
2023-01-28T02:53:31.740Z,99.99
2023-01-28T02:54:31.817Z,99.99
2023-01-28T02:55:39.337Z,99.99
2023-01-28T02:56:31.701Z,99.99
2023-01-28T02:57:31.781Z,99.99
2023-01-28T02:58:31.679Z,99.99
2023-01-28T02:59:33.170Z,99.99
2023-01-28T03:00:31.671Z,99.99
2023-01-28T03:01:31.661Z,99.99
2023-01-28T03:02:31.653Z,99.99
2023-01-28T03:03:31.658Z,99.99
2023-01-28T03:04:31.670Z,99.99
2023-01-28T03:05:31.638Z,99.99
2023-01-28T03:06:31.632Z,99.99
2023-01-28T03:07:31.649Z,99.99
2023-01-28T03:08:31.637Z,99.99
2023-01-28T03:09:31.685Z,99.99
2023-01-28T03:10:31.618Z,99.99
2023-01-28T03:11:31.620Z,99.99
2023-01-28T03:12:31.624Z,99.99
2023-01-28T03:13:31.604Z,99.99
2023-01-28T03:14:31.621Z,99.99
2023-01-28T03:15:31.583Z,99.99
2023-01-28T03:16:31.596Z,99.99
2023-01-28T03:17:31.592Z,99.99
2023-01-28T03:18:32.170Z,99.99
2023-01-28T03:19:32.349Z,99.99
2023-01-28T03:20:31.713Z,99.99
2023-01-28T03:21:32.282Z,99.99
2023-01-28T03:22:32.709Z,99.99
2023-01-28T03:23:32.848Z,99.99
2023-01-28T03:24:32.360Z,99.99
2023-01-28T03:25:33.406Z,99.99
2023-01-28T03:26:33.673Z,99.99
2023-01-28T03:27:33.177Z,99.99
2023-01-28T03:28:31.752Z,99.99
2023-01-28T03:29:32.719Z,99.99
2023-01-28T03:30:31.589Z,99.99
2023-01-28T03:31:31.548Z,99.99
2023-01-28T03:32:31.610Z,99.99
2023-01-28T03:33:31.490Z,99.99
2023-01-28T03:34:31.487Z,99.99
2023-01-28T03:35:31.501Z,99.99
2023-01-28T03:36:31.499Z,99.99
2023-01-28T03:37:31.493Z,99.99
2023-01-28T03:38:40.788Z,99.99
2023-01-28T03:39:31.475Z,99.99
2023-01-28T03:40:31.470Z,99.99
2023-01-28T03:41:31.470Z,99.99
2023-01-28T03:42:31.486Z,99.99
2023-01-28T03:43:31.466Z,99.99
2023-01-28T03:44:31.445Z,99.99
2023-01-28T03:45:31.471Z,99.99
2023-01-28T03:46:31.463Z,99.99
2023-01-28T03:47:31.453Z,99.99
2023-01-28T03:48:31.427Z,99.99
2023-01-28T03:49:31.410Z,99.99
2023-01-28T03:50:31.412Z,99.99
2023-01-28T03:51:31.411Z,99.99
2023-01-28T03:52:31.409Z,99.99
2023-01-28T03:53:31.441Z,99.99
2023-01-28T03:54:31.415Z,99.99
2023-01-28T03:55:31.383Z,99.99
2023-01-28T03:56:31.371Z,99.99
2023-01-28T03:57:31.471Z,99.99
2023-01-28T03:58:31.398Z,99.99
2023-01-28T03:59:31.370Z,99.99
2023-01-28T04:00:31.392Z,99.99
2023-01-28T04:01:31.392Z,99.99
2023-01-28T04:02:31.373Z,99.99
2023-01-28T04:03:31.369Z,99.99
2023-01-28T04:04:31.350Z,99.99
2023-01-28T04:05:31.337Z,99.99
2023-01-28T04:06:31.322Z,99.99
2023-01-28T04:07:31.322Z,99.99
2023-01-28T04:08:31.311Z,99.99
2023-01-28T04:09:31.342Z,99.99
2023-01-28T04:10:31.328Z,99.99
2023-01-28T04:11:31.319Z,99.99
2023-01-28T04:12:31.288Z,99.99
2023-01-28T04:13:31.299Z,99.99
2023-01-28T04:14:31.294Z,99.99
2023-01-28T04:15:31.312Z,99.99
2023-01-28T04:16:31.317Z,99.99
2023-01-28T04:17:31.299Z,99.99
2023-01-28T04:18:31.288Z,99.99
2023-01-28T04:19:31.267Z,99.99
2023-01-28T04:20:31.266Z,99.99
2023-01-28T04:21:31.300Z,99.99
2023-01-28T04:22:31.250Z,99.99
2023-01-28T04:23:31.238Z,99.99
2023-01-28T04:24:31.289Z,99.99
2023-01-28T04:25:31.247Z,99.99
2023-01-28T04:26:31.241Z,99.99
2023-01-28T04:27:31.244Z,99.99
2023-01-28T04:28:31.231Z,99.43
2023-01-28T04:29:31.241Z,99.71
2023-01-28T04:30:31.266Z,98.86
2023-01-28T04:31:31.238Z,99.15
2023-01-28T04:32:31.226Z,98.86
2023-01-28T04:33:31.225Z,98.86
2023-01-28T04:34:31.201Z,98.20
2023-01-28T04:35:31.193Z,98.68
2023-01-28T04:36:31.205Z,98.49
2023-01-28T04:37:31.164Z,98.68
2023-01-28T04:38:31.208Z,98.49
2023-01-28T04:39:31.170Z,97.44
2023-01-28T04:40:31.166Z,97.92
2023-01-28T04:41:31.156Z,97.16
2023-01-28T04:42:31.164Z,96.97
2023-01-28T04:43:31.167Z,97.06
2023-01-28T04:44:31.173Z,97.06
2023-01-28T04:45:31.148Z,97.35
2023-01-28T04:46:31.157Z,96.12
2023-01-28T04:47:31.797Z,96.69
2023-01-28T04:48:31.145Z,96.69
2023-01-28T04:49:31.127Z,95.74
2023-01-28T04:50:31.183Z,95.26
2023-01-28T04:51:32.226Z,95.26
2023-01-28T04:52:31.111Z,94.89
2023-01-28T04:53:31.595Z,94.51
2023-01-28T04:54:31.496Z,94.51
2023-01-28T04:55:33.810Z,94.70
2023-01-28T05:00:59.582Z,94.23
2023-01-28T05:03:41.313Z,93.46
2023-01-28T05:04:42.639Z,93.18
2023-01-28T05:10:46.859Z,92.33
2023-01-28T05:11:46.923Z,92.43
2023-01-28T05:12:46.460Z,92.90
2023-01-28T05:13:47.045Z,92.71
2023-01-28T05:14:46.564Z,92.80
2023-01-28T05:15:46.874Z,92.61
2023-01-28T05:16:47.205Z,92.61
2023-01-28T05:20:11.479Z,92.80
2023-01-28T05:21:09.753Z,92.99
2023-01-28T05:22:10.142Z,92.61
2023-01-28T05:23:09.734Z,92.90
2023-01-28T05:24:09.850Z,92.24
2023-01-28T05:25:10.306Z,92.33
2023-01-28T05:26:10.534Z,92.24
2023-01-28T05:27:09.764Z,92.24
2023-01-28T05:28:09.902Z,92.80
2023-01-28T05:29:12.332Z,92.61
2023-01-28T05:30:11.331Z,92.71
2023-01-28T05:31:17.497Z,92.52
2023-01-28T05:32:10.467Z,92.52
2023-01-28T05:33:11.812Z,92.43
2023-01-28T05:34:15.167Z,92.43
2023-01-28T05:35:09.665Z,92.90
2023-01-28T05:36:20.850Z,93.18
2023-01-28T05:37:09.731Z,92.24
2023-01-28T05:38:09.662Z,92.33
2023-01-28T05:39:09.652Z,92.43
2023-01-28T05:40:10.827Z,92.61
2023-01-28T05:41:10.846Z,92.61
2023-01-28T05:42:09.834Z,91.95
2023-01-28T05:43:09.665Z,92.24
2023-01-28T05:44:09.640Z,92.05
2023-01-28T05:45:09.629Z,92.43
2023-01-28T05:46:09.623Z,92.52
2023-01-28T05:47:09.688Z,92.43
2023-01-28T05:48:09.726Z,92.43
2023-01-28T05:49:09.709Z,92.61
2023-01-28T05:50:09.635Z,92.71
2023-01-28T05:51:09.626Z,92.71
2023-01-28T05:52:09.722Z,92.43
2023-01-28T05:53:11.330Z,92.33
2023-01-28T05:54:09.732Z,92.61
2023-01-28T05:55:10.472Z,92.43
2023-01-28T05:56:10.322Z,92.43
2023-01-28T05:57:14.331Z,92.61
2023-01-28T05:58:09.864Z,92.90
2023-01-28T05:59:10.811Z,92.61
2023-01-28T06:00:09.567Z,92.14
2023-01-28T06:01:09.583Z,91.95
2023-01-28T06:02:10.564Z,91.67
2023-01-28T06:03:09.807Z,92.61
2023-01-28T06:04:10.452Z,92.61
2023-01-28T06:05:09.619Z,92.33
2023-01-28T06:06:12.540Z,92.24
2023-01-28T06:07:09.576Z,92.14
2023-01-28T06:08:10.827Z,91.86
2023-01-28T06:09:09.533Z,92.33
2023-01-28T06:10:09.519Z,92.05
2023-01-28T06:11:09.601Z,91.67
2023-01-28T06:12:09.521Z,91.67
2023-01-28T06:13:09.511Z,91.67
2023-01-28T06:14:09.768Z,91.67
2023-01-28T06:15:11.823Z,91.48
2023-01-28T06:16:09.548Z,91.86
2023-01-28T06:17:10.972Z,91.10
2023-01-28T06:18:09.564Z,91.76
2023-01-28T06:19:09.482Z,91.86
2023-01-28T06:20:11.324Z,91.76
2023-01-28T06:21:12.317Z,91.86
2023-01-28T06:22:11.317Z,91.38
2023-01-28T06:23:14.864Z,91.29
2023-01-28T06:24:10.374Z,91.67
2023-01-28T06:25:09.543Z,91.10
2023-01-28T06:26:11.399Z,90.91
2023-01-28T06:27:17.322Z,90.81
2023-01-28T06:28:09.431Z,90.63
2023-01-28T06:29:14.829Z,91.00
2023-01-28T06:30:10.553Z,91.86
2023-01-28T06:31:20.983Z,91.86
2023-01-28T06:38:56.320Z,91.29
2023-01-28T06:39:56.943Z,91.76
2023-01-28T06:40:59.019Z,91.10
2023-01-28T06:41:57.029Z,91.29
2023-01-28T06:42:58.068Z,91.48
2023-01-28T06:46:02.334Z,91.76
2023-01-28T06:47:02.206Z,91.10
2023-01-28T06:48:03.991Z,90.81
2023-01-28T06:49:02.186Z,90.91
2023-01-28T06:50:02.455Z,90.91
2023-01-28T06:51:02.768Z,90.91
2023-01-28T06:52:02.769Z,91.29
2023-01-28T06:53:02.176Z,91.67
2023-01-28T06:55:42.858Z,91.19
2023-01-28T06:56:42.788Z,91.10
2023-01-28T07:02:28.433Z,90.81
2023-01-28T07:03:27.962Z,90.72
2023-01-28T07:04:28.768Z,91.29
2023-01-28T07:05:41.567Z,91.00
2023-01-28T07:06:28.040Z,91.29
2023-01-28T07:07:27.968Z,91.38
2023-01-28T07:08:27.964Z,91.67
2023-01-28T07:09:27.952Z,91.38
2023-01-28T07:10:27.927Z,91.38
2023-01-28T07:11:27.951Z,91.67
2023-01-28T07:12:27.963Z,91.10
2023-01-28T07:13:27.936Z,90.53
2023-01-28T07:14:27.921Z,90.72
2023-01-28T07:18:53.320Z,90.25
2023-01-28T07:24:36.477Z,89.87
2023-01-28T07:28:42.994Z,90.34
2023-01-28T07:29:43.005Z,91.00
2023-01-28T07:30:43.050Z,90.91
2023-01-28T07:31:43.082Z,91.33
2023-01-28T07:32:42.996Z,91.00
2023-01-28T07:33:42.953Z,91.00
2023-01-28T07:34:42.990Z,91.19
2023-01-28T07:35:42.963Z,90.72
2023-01-28T07:36:42.994Z,90.44
2023-01-28T07:37:42.950Z,89.87
2023-01-28T07:38:42.982Z,89.91
2023-01-28T07:39:42.931Z,89.77
2023-01-28T07:40:42.940Z,89.87
2023-01-28T07:41:42.938Z,89.11
2023-01-28T07:42:42.930Z,88.68
2023-01-28T07:43:42.931Z,88.49
2023-01-28T07:44:42.928Z,88.45
2023-01-28T07:45:42.967Z,88.26
2023-01-28T07:46:42.891Z,88.26
2023-01-28T07:47:42.893Z,88.26
2023-01-28T07:51:02.576Z,87.59
2023-01-28T07:52:02.567Z,88.17
2023-01-28T07:53:02.565Z,87.40
2023-01-28T07:54:02.569Z,87.59
2023-01-28T07:55:02.572Z,88.11
2023-01-28T07:56:02.556Z,88.54
2023-01-28T07:57:02.572Z,88.68
2023-01-28T07:58:02.570Z,88.78
2023-01-28T07:59:02.679Z,88.49
2023-01-28T08:00:02.549Z,88.68
2023-01-28T08:01:02.586Z,89.25
2023-01-28T08:02:02.551Z,88.87
2023-01-28T08:03:02.573Z,89.15
2023-01-28T08:04:02.620Z,88.59
2023-01-28T08:05:02.688Z,88.96
2023-01-28T08:06:02.502Z,88.40
2023-01-28T08:07:02.490Z,88.40
2023-01-28T08:08:02.580Z,88.68
2023-01-28T08:09:02.555Z,87.92
2023-01-28T08:10:02.615Z,87.64
2023-01-28T08:11:02.510Z,87.64
2023-01-28T08:12:02.479Z,87.16
2023-01-28T08:13:02.470Z,87.64
2023-01-28T08:14:02.494Z,87.73
2023-01-28T08:15:02.460Z,88.02
2023-01-28T08:16:02.483Z,87.54
2023-01-28T08:17:02.451Z,87.98
2023-01-28T08:18:02.471Z,87.83
2023-01-28T08:19:02.477Z,87.54
2023-01-28T08:20:02.445Z,88.02
2023-01-28T08:21:02.429Z,88.87
2023-01-28T08:23:44.766Z,88.87
2023-01-28T08:24:44.725Z,89.15
2023-01-28T08:25:44.665Z,89.15
2023-01-28T08:26:44.759Z,88.40
2023-01-28T08:27:44.723Z,88.02
2023-01-28T08:28:44.739Z,87.92
2023-01-28T08:29:45.821Z,87.83
2023-01-28T08:30:44.854Z,87.64
2023-01-28T08:31:44.838Z,87.26
2023-01-28T08:32:44.659Z,87.83
2023-01-28T08:33:44.664Z,88.02
2023-01-28T08:34:44.680Z,87.64
2023-01-28T08:43:35.564Z,87.45
2023-01-28T08:51:44.097Z,86.41
2023-01-28T08:52:44.953Z,86.60
2023-01-28T08:57:53.012Z,87.45
2023-01-28T08:58:52.971Z,86.98
2023-01-28T08:59:52.924Z,86.88
2023-01-28T09:00:52.882Z,86.88
2023-01-28T09:01:52.951Z,87.64
2023-01-28T09:02:52.947Z,87.54
2023-01-28T09:03:53.052Z,87.07
2023-01-28T09:04:52.894Z,86.98
2023-01-28T09:05:52.869Z,86.88
2023-01-28T09:06:53.029Z,87.54
2023-01-28T09:07:52.890Z,87.07
2023-01-28T09:14:41.758Z,86.98
2023-01-28T09:15:41.797Z,86.98
2023-01-28T09:19:15.889Z,86.98
2023-01-28T09:20:06.936Z,86.79
2023-01-28T09:21:07.595Z,86.79
2023-01-28T09:22:06.913Z,87.26
2023-01-28T09:27:49.040Z,86.22
2023-01-28T09:28:48.946Z,86.03
2023-01-28T09:29:48.967Z,86.12
2023-01-28T09:30:49.210Z,85.65
2023-01-28T09:31:49.023Z,84.99
2023-01-28T09:32:48.940Z,84.99
2023-01-28T09:33:48.958Z,84.80
2023-01-28T09:34:48.992Z,84.80
2023-01-28T09:35:49.033Z,85.55
2023-01-28T09:36:48.909Z,85.27
2023-01-28T09:37:48.927Z,85.17
2023-01-28T09:38:57.333Z,84.80
2023-01-28T09:39:48.943Z,84.32
2023-01-28T09:40:48.929Z,84.70
2023-01-28T09:41:48.890Z,84.51
2023-01-28T09:42:48.913Z,84.61
2023-01-28T09:43:48.864Z,84.51
2023-01-28T09:44:48.875Z,84.61
2023-01-28T09:45:48.869Z,84.51
2023-01-28T09:46:48.975Z,85.46
2023-01-28T09:47:48.856Z,85.36
2023-01-28T09:48:48.834Z,85.17
2023-01-28T09:49:48.842Z,85.08
2023-01-28T09:50:48.816Z,85.46
2023-01-28T09:51:48.863Z,84.70
2023-01-28T09:52:48.831Z,84.61
2023-01-28T09:53:50.029Z,84.51
2023-01-28T09:54:48.793Z,83.75
2023-01-28T09:55:48.859Z,84.13
2023-01-28T09:56:48.820Z,84.61
2023-01-28T09:57:48.786Z,85.27
2023-01-28T09:58:48.788Z,85.46
2023-01-28T09:59:48.781Z,86.03
2023-01-28T10:00:48.810Z,85.36
2023-01-28T10:01:48.772Z,85.41
2023-01-28T10:02:48.790Z,84.84
2023-01-28T10:03:48.784Z,84.74
2023-01-28T10:04:48.773Z,85.13
2023-01-28T10:05:48.757Z,84.46
2023-01-28T10:06:48.769Z,84.74
2023-01-28T10:07:48.778Z,83.89
2023-01-28T10:08:48.734Z,83.89
2023-01-28T10:09:48.790Z,84.08
2023-01-28T10:10:48.759Z,84.46
2023-01-28T10:11:48.723Z,83.42
2023-01-28T10:12:48.722Z,83.89
2023-01-28T10:13:48.740Z,84.65
2023-01-28T10:14:48.715Z,83.80
2023-01-28T10:15:48.715Z,84.46
2023-01-28T10:16:48.704Z,84.55
2023-01-28T10:17:48.711Z,84.74
2023-01-28T10:18:48.720Z,84.46
2023-01-28T10:19:48.721Z,83.89
2023-01-28T10:20:48.690Z,85.03
2023-01-28T10:21:48.676Z,84.46
2023-01-28T10:22:48.681Z,83.98
2023-01-28T10:23:48.703Z,84.27
2023-01-28T10:24:48.658Z,84.08
2023-01-28T10:25:48.666Z,83.70
2023-01-28T10:26:48.666Z,83.04
2023-01-28T10:27:48.676Z,83.13
2023-01-28T10:28:48.681Z,83.70
2023-01-28T10:29:48.651Z,84.08
2023-01-28T10:30:48.666Z,84.65
2023-01-28T10:31:48.716Z,84.65
2023-01-28T10:32:48.632Z,84.55
2023-01-28T10:33:48.631Z,84.27
2023-01-28T10:34:48.631Z,84.55
2023-01-28T10:35:48.629Z,84.84
2023-01-28T10:36:48.638Z,84.27
2023-01-28T10:37:48.624Z,84.08
2023-01-28T10:38:48.619Z,83.04
2023-01-28T10:39:48.648Z,83.13
2023-01-28T10:40:48.603Z,83.98
2023-01-28T10:41:57.330Z,84.46
2023-01-28T10:42:48.595Z,84.65
2023-01-28T10:43:48.606Z,84.27
2023-01-28T10:44:48.585Z,83.61
2023-01-28T10:45:48.657Z,82.66
2023-01-28T10:46:48.579Z,83.51
2023-01-28T10:47:48.587Z,83.32
2023-01-28T10:48:48.574Z,82.28
2023-01-28T10:49:48.567Z,82.85
2023-01-28T10:50:48.600Z,83.32
2023-01-28T10:51:48.584Z,83.13
2023-01-28T10:52:48.553Z,83.32
2023-01-28T10:53:48.552Z,83.89
2023-01-28T10:54:48.543Z,83.42
2023-01-28T10:55:48.559Z,82.94
2023-01-28T10:56:48.576Z,83.23
2023-01-28T10:57:48.550Z,83.23
2023-01-28T10:58:48.524Z,84.27
2023-01-28T10:59:48.544Z,83.89
2023-01-28T11:00:48.526Z,83.70
2023-01-28T11:01:48.511Z,83.70
2023-01-28T11:02:48.527Z,83.61
2023-01-28T11:03:48.518Z,83.70
2023-01-28T11:04:48.512Z,84.27
2023-01-28T11:05:48.523Z,83.98
2023-01-28T11:06:48.515Z,83.98
2023-01-28T11:07:48.480Z,83.89
2023-01-28T11:08:48.498Z,83.51
2023-01-28T11:09:48.489Z,83.89
2023-01-28T11:10:48.477Z,83.98
2023-01-28T11:11:48.482Z,84.46
2023-01-28T11:12:48.497Z,84.65
2023-01-28T11:13:48.478Z,84.65
2023-01-28T11:14:48.449Z,83.98
2023-01-28T11:15:48.502Z,84.27
2023-01-28T11:16:48.468Z,84.36
2023-01-28T11:17:48.503Z,84.65
2023-01-28T11:18:48.445Z,84.84
2023-01-28T11:19:48.448Z,84.74
2023-01-28T11:20:48.470Z,85.13
2023-01-28T11:21:48.447Z,84.74
2023-01-28T11:22:48.439Z,83.89
2023-01-28T11:23:48.431Z,83.51
2023-01-28T11:24:48.462Z,83.70
2023-01-28T11:25:48.413Z,83.89
2023-01-28T11:26:48.495Z,83.70
2023-01-28T11:27:48.407Z,83.51
2023-01-28T11:28:48.422Z,83.23
2023-01-28T11:29:48.411Z,83.42
2023-01-28T11:30:48.411Z,83.42
2023-01-28T11:31:48.436Z,83.70
2023-01-28T11:32:48.399Z,83.61
2023-01-28T11:33:48.373Z,83.70
2023-01-28T11:34:48.384Z,84.65
2023-01-28T11:35:48.370Z,84.65
2023-01-28T11:36:48.387Z,85.31
2023-01-28T11:37:48.369Z,85.31
2023-01-28T11:38:48.369Z,84.65
2023-01-28T11:39:48.358Z,85.13
2023-01-28T11:40:48.355Z,85.60
2023-01-28T11:41:48.367Z,85.97
2023-01-28T11:42:48.389Z,86.93
2023-01-28T11:43:48.330Z,87.49
2023-01-28T11:44:48.349Z,86.74
2023-01-28T11:45:48.410Z,86.45
2023-01-28T11:46:48.368Z,86.16
2023-01-28T11:47:48.333Z,86.07
2023-01-28T11:48:48.319Z,86.64
2023-01-28T11:49:48.324Z,86.35
2023-01-28T11:50:48.327Z,85.69
2023-01-28T11:51:48.299Z,86.07
2023-01-28T11:53:06.180Z,85.88
2023-01-28T11:53:48.302Z,85.69
2023-01-28T11:54:48.285Z,85.78
2023-01-28T11:55:48.287Z,85.60
2023-01-28T11:56:48.319Z,85.78
2023-01-28T11:57:48.301Z,85.55
2023-01-28T11:58:48.295Z,85.64
2023-01-28T11:59:48.262Z,85.55
2023-01-28T12:00:48.262Z,84.69
2023-01-28T12:01:48.291Z,85.07
2023-01-28T12:02:48.320Z,85.74
2023-01-28T12:03:48.277Z,84.78
2023-01-28T12:04:48.351Z,85.26
2023-01-28T12:05:48.245Z,85.26
2023-01-28T12:06:48.237Z,85.55
2023-01-28T12:07:48.230Z,85.45
2023-01-28T12:08:48.241Z,84.98
2023-01-28T12:09:48.247Z,85.07
2023-01-28T12:10:48.230Z,84.88
2023-01-28T12:11:48.232Z,85.26
2023-01-28T12:12:48.221Z,84.88
2023-01-28T12:13:48.248Z,85.26
2023-01-28T12:14:48.227Z,85.36
2023-01-28T12:15:48.526Z,85.07
2023-01-28T12:16:48.206Z,84.69
2023-01-28T12:17:48.200Z,85.55
2023-01-28T12:18:48.201Z,85.45
2023-01-28T12:19:48.218Z,84.88
2023-01-28T12:20:48.187Z,85.45
2023-01-28T12:21:48.188Z,85.55
2023-01-28T12:22:48.187Z,85.64
2023-01-28T12:23:48.179Z,84.84
2023-01-28T12:24:48.197Z,85.17
2023-01-28T12:25:48.190Z,84.98
2023-01-28T12:26:48.185Z,84.78
2023-01-28T12:27:48.176Z,84.78
2023-01-28T12:28:48.163Z,85.17
2023-01-28T12:29:48.199Z,85.55
2023-01-28T12:30:48.187Z,85.36
2023-01-28T12:31:48.181Z,86.02
2023-01-28T12:32:48.164Z,87.06
2023-01-28T12:33:48.144Z,87.73
2023-01-28T12:34:48.204Z,87.73
2023-01-28T12:35:48.160Z,86.30
2023-01-28T12:36:48.356Z,86.11
2023-01-28T12:37:48.320Z,85.83
2023-01-28T12:38:48.180Z,85.17
2023-01-28T12:39:48.157Z,84.88
2023-01-28T12:40:48.180Z,84.88
2023-01-28T12:41:48.296Z,84.98
2023-01-28T12:42:48.616Z,84.69
2023-01-28T12:43:48.126Z,84.41
2023-01-28T12:44:48.190Z,84.69
2023-01-28T12:45:48.132Z,84.88
2023-01-28T12:46:48.535Z,85.74
2023-01-28T12:47:48.327Z,85.83
2023-01-28T12:48:48.429Z,85.74
2023-01-28T12:49:48.808Z,85.74
2023-01-28T12:50:48.336Z,85.83
2023-01-28T12:51:48.097Z,84.88
2023-01-28T12:52:48.331Z,85.07
2023-01-28T12:53:48.244Z,84.69
2023-01-28T12:54:48.235Z,85.74
2023-01-28T12:55:48.064Z,85.83
2023-01-28T12:56:48.136Z,85.74
2023-01-28T12:57:48.089Z,85.74
2023-01-28T12:58:48.061Z,86.02
2023-01-28T12:59:48.075Z,85.17
2023-01-28T13:00:48.063Z,84.88
2023-01-28T13:01:48.807Z,85.36
2023-01-28T13:02:48.067Z,84.88
2023-01-28T13:03:48.102Z,85.17
2023-01-28T13:04:49.319Z,84.69
2023-01-28T13:05:48.393Z,84.69
2023-01-28T13:06:49.393Z,85.55
2023-01-28T13:07:48.173Z,85.64
2023-01-28T13:08:59.231Z,85.36
2023-01-28T13:09:52.845Z,85.13
2023-01-28T13:10:48.801Z,85.03
2023-01-28T13:11:48.762Z,84.94
2023-01-28T13:12:48.908Z,85.22
2023-01-28T13:13:48.763Z,85.50
2023-01-28T13:14:48.846Z,85.03
2023-01-28T13:15:48.828Z,84.65
2023-01-28T13:16:48.299Z,84.65
2023-01-28T13:17:48.787Z,84.55
2023-01-28T13:18:50.338Z,85.03
2023-01-28T13:19:48.360Z,84.84
2023-01-28T13:20:49.228Z,84.65
2023-01-28T13:21:49.604Z,85.50
2023-01-28T13:22:48.773Z,84.55
2023-01-28T13:23:48.435Z,84.55
2023-01-28T13:24:48.195Z,84.46
2023-01-28T13:25:48.490Z,84.94
2023-01-28T13:26:48.116Z,84.08
2023-01-28T13:27:48.122Z,83.98
2023-01-28T13:28:48.135Z,83.61
2023-01-28T13:29:48.846Z,83.70
2023-01-28T13:30:48.181Z,83.61
2023-01-28T13:31:48.717Z,83.98
2023-01-28T13:32:48.049Z,84.08
2023-01-28T13:33:48.095Z,83.70
2023-01-28T13:34:48.019Z,83.23
2023-01-28T13:35:48.231Z,83.23
2023-01-28T13:36:49.352Z,83.70
2023-01-28T13:37:48.197Z,83.51
2023-01-28T13:38:48.217Z,83.70
2023-01-28T13:39:47.996Z,84.27
2023-01-28T13:40:48.842Z,83.89
2023-01-28T13:41:48.028Z,83.80
2023-01-28T13:42:48.594Z,83.61
2023-01-28T13:43:48.904Z,83.89
2023-01-28T13:44:49.343Z,83.80
2023-01-28T13:45:49.068Z,84.08
2023-01-28T13:46:49.011Z,84.65
2023-01-28T13:47:48.875Z,84.84
2023-01-28T13:48:48.280Z,84.36
2023-01-28T13:49:47.871Z,84.94
2023-01-28T13:50:47.942Z,84.55
2023-01-28T13:51:47.925Z,84.55
2023-01-28T13:52:48.191Z,84.08
2023-01-28T13:59:16.733Z,83.04
2023-01-28T14:00:05.825Z,82.94
2023-01-28T14:00:58.723Z,83.89
2023-01-28T14:01:59.742Z,83.89
2023-01-28T14:02:59.819Z,84.27
2023-01-28T14:04:03.217Z,83.89
2023-01-28T14:05:04.489Z,83.51
2023-01-28T14:17:55.492Z,84.65
2023-01-28T14:18:55.588Z,85.60
2023-01-28T14:19:55.648Z,84.84
2023-01-28T14:20:56.144Z,85.13
2023-01-28T14:21:55.104Z,85.60
2023-01-28T14:22:55.821Z,85.22
2023-01-28T14:23:55.581Z,84.65
2023-01-28T14:24:55.866Z,83.98
2023-01-28T14:25:54.871Z,84.08
2023-01-28T14:26:54.864Z,83.51
2023-01-28T14:27:54.936Z,83.04
2023-01-28T14:28:54.888Z,82.94
2023-01-28T14:29:54.987Z,83.61
2023-01-28T14:30:54.971Z,83.89